Wetterdaten für den Flughafen Lübeck Blankensee


ADDS - METARS form results Aviation Digital Data Service (ADDS) Output produced by METARs form (1943 UTC 04 August 2020)
found at http://www.aviationweather.gov/metar/data/
 
EDHL 041850Z VRB02KT CAVOK 18/09 Q1016
TAF EDHL 041700Z 0418/0421 25005KT CAVOK BECMG 0418/0420 VRB03KT

Nord: Hamburg, Lübeck
Ost: Schwerin, Rostock
Süd: Hannover
West: Bremen, Nordhloz

 

Copyright © 2016 Flugschule Hohensee